createdAt,value
2017-03-28T00:00:54.348Z,4.72
2017-03-28T00:01:53.129Z,5.63
2017-03-28T00:02:51.942Z,7.52
2017-03-28T00:03:50.750Z,6.65
2017-03-28T00:04:49.601Z,7.70
2017-03-28T00:05:48.457Z,5.45
2017-03-28T00:06:47.612Z,8.38
2017-03-28T00:07:46.009Z,8.03
2017-03-28T00:08:44.849Z,6.73
2017-03-28T00:09:43.681Z,6.08
2017-03-28T00:10:42.514Z,5.33
2017-03-28T00:11:41.364Z,6.77
2017-03-28T00:12:40.580Z,5.88
2017-03-28T00:13:39.419Z,5.72
2017-03-28T00:14:38.232Z,9.18
2017-03-28T00:15:36.673Z,6.83
2017-03-28T00:16:35.509Z,5.83
2017-03-28T00:17:34.318Z,7.53
2017-03-28T00:18:33.456Z,6.13
2017-03-28T00:19:32.269Z,7.03
2017-03-28T00:20:30.697Z,6.60
2017-03-28T00:21:29.497Z,5.28
2017-03-28T00:22:28.339Z,8.38
2017-03-28T00:23:26.738Z,6.65
2017-03-28T00:24:25.509Z,6.50
2017-03-28T00:25:24.334Z,6.77
2017-03-28T00:26:23.128Z,5.67
2017-03-28T00:27:21.589Z,6.30
2017-03-28T00:28:20.417Z,5.62
2017-03-28T00:29:19.209Z,5.10
2017-03-28T00:30:18.072Z,7.23
2017-03-28T00:31:16.489Z,7.32
2017-03-28T00:32:15.319Z,5.87
2017-03-28T00:33:14.177Z,6.75
2017-03-28T00:34:13.014Z,10.67
2017-03-28T00:35:11.888Z,5.75
2017-03-28T00:36:11.008Z,7.03
2017-03-28T00:37:09.838Z,6.60
2017-03-28T00:38:08.679Z,7.50
2017-03-28T00:39:07.150Z,7.58
2017-03-28T00:40:06.017Z,8.38
2017-03-28T00:41:04.850Z,6.55
2017-03-28T00:42:03.617Z,5.53
2017-03-28T00:43:02.438Z,7.83
2017-03-28T00:44:01.234Z,6.62
2017-03-28T00:45:00.016Z,5.45
2017-03-28T00:45:58.835Z,4.87
2017-03-28T00:46:57.651Z,7.35
2017-03-28T00:47:56.788Z,7.88
2017-03-28T00:48:55.604Z,5.98
2017-03-28T00:49:54.052Z,6.28
2017-03-28T00:50:52.860Z,5.73
2017-03-28T00:51:51.755Z,5.27
2017-03-28T00:52:50.577Z,5.82
2017-03-28T00:53:49.763Z,6.17
2017-03-28T00:54:48.865Z,6.75
2017-03-28T00:55:47.251Z,4.77
2017-03-28T00:56:45.675Z,4.70
2017-03-28T00:57:44.497Z,7.02
2017-03-28T00:58:43.322Z,5.47
2017-03-28T00:59:42.428Z,5.97
2017-03-28T01:00:41.274Z,7.77
2017-03-28T01:01:39.734Z,7.32
2017-03-28T01:02:38.232Z,5.65
2017-03-28T01:03:37.017Z,8.95
2017-03-28T01:04:35.825Z,6.73
2017-03-28T01:05:34.904Z,7.80
2017-03-28T01:06:33.765Z,6.60
2017-03-28T01:07:32.593Z,6.80
2017-03-28T01:08:31.429Z,7.62
2017-03-28T01:09:30.272Z,6.60
2017-03-28T01:10:29.149Z,9.75
2017-03-28T01:11:28.272Z,4.20
2017-03-28T01:12:27.324Z,8.70
2017-03-28T01:13:26.062Z,6.32
2017-03-28T01:14:24.465Z,6.08
2017-03-28T01:15:22.975Z,8.13
2017-03-28T01:16:21.792Z,8.22
2017-03-28T01:17:20.639Z,4.68
2017-03-28T01:18:19.486Z,6.65
2017-03-28T01:19:18.356Z,6.83
2017-03-28T01:20:17.189Z,7.97
2017-03-28T01:21:16.019Z,9.20
2017-03-28T01:22:14.844Z,6.03
2017-03-28T01:23:14.025Z,6.62
2017-03-28T01:24:12.861Z,6.10
2017-03-28T01:25:11.686Z,9.03
2017-03-28T01:26:10.552Z,8.28
2017-03-28T01:27:09.412Z,7.63
2017-03-28T01:28:08.233Z,8.37
2017-03-28T01:29:07.333Z,7.45
2017-03-28T01:30:05.789Z,5.75
2017-03-28T01:31:04.625Z,5.90
2017-03-28T01:32:03.465Z,7.35
2017-03-28T01:33:02.699Z,6.67
2017-03-28T01:34:01.173Z,5.02
2017-03-28T01:35:00.376Z,5.78
2017-03-28T01:35:59.171Z,7.22
2017-03-28T01:36:57.607Z,5.95
2017-03-28T01:37:56.417Z,7.40
2017-03-28T01:38:55.217Z,6.02
2017-03-28T01:39:54.413Z,5.12
2017-03-28T01:40:53.551Z,5.87
2017-03-28T01:41:52.584Z,6.05
2017-03-28T01:42:51.402Z,4.62
2017-03-28T01:43:50.272Z,5.38
2017-03-28T01:44:49.076Z,7.37
2017-03-28T01:45:47.886Z,5.68
2017-03-28T01:46:47.047Z,7.77
2017-03-28T01:47:45.865Z,6.13
2017-03-28T01:48:44.685Z,5.40
2017-03-28T01:49:43.513Z,6.98
2017-03-28T01:50:42.299Z,5.82
2017-03-28T01:51:41.099Z,8.35
2017-03-28T01:52:40.218Z,7.37
2017-03-28T01:53:39.006Z,7.22
2017-03-28T01:54:37.821Z,6.47
2017-03-28T01:55:36.646Z,8.75
2017-03-28T01:56:35.521Z,4.88
2017-03-28T01:57:34.375Z,5.83
2017-03-28T01:58:33.601Z,4.27
2017-03-28T01:59:32.405Z,5.15
2017-03-28T02:00:31.268Z,6.25
2017-03-28T02:01:30.085Z,5.77
2017-03-28T02:02:28.925Z,8.12
2017-03-28T02:03:27.755Z,7.13
2017-03-28T02:04:26.884Z,7.23
2017-03-28T02:05:25.712Z,10.15
2017-03-28T02:06:25.298Z,6.32
2017-03-28T02:07:24.150Z,7.28
2017-03-28T02:08:22.974Z,7.95
2017-03-28T02:09:22.218Z,6.05
2017-03-28T02:10:21.391Z,5.30
2017-03-28T02:11:20.215Z,6.90
2017-03-28T02:12:19.044Z,5.67
2017-03-28T02:13:17.848Z,9.48
2017-03-28T02:14:16.677Z,8.83
2017-03-28T02:15:15.492Z,8.62
2017-03-28T02:16:14.605Z,5.73
2017-03-28T02:17:13.764Z,8.18
2017-03-28T02:18:12.565Z,5.55
2017-03-28T02:19:11.411Z,7.65
2017-03-28T02:20:10.237Z,7.62
2017-03-28T02:21:09.040Z,6.30
2017-03-28T02:22:08.272Z,6.57
2017-03-28T02:23:07.092Z,5.68
2017-03-28T02:24:05.964Z,5.47
2017-03-28T02:25:04.784Z,5.75
2017-03-28T02:26:03.592Z,10.32
2017-03-28T02:27:02.417Z,7.23
2017-03-28T02:28:01.548Z,6.55
2017-03-28T02:29:00.382Z,7.03
2017-03-28T02:29:59.223Z,6.93
2017-03-28T02:30:58.053Z,8.00
2017-03-28T02:31:56.870Z,5.98
2017-03-28T02:32:55.289Z,4.78
2017-03-28T02:33:54.421Z,10.55
2017-03-28T02:34:53.217Z,7.33
2017-03-28T02:35:52.117Z,7.17
2017-03-28T02:36:50.928Z,5.75
2017-03-28T02:37:49.717Z,6.55
2017-03-28T02:38:48.575Z,5.05
2017-03-28T02:39:47.700Z,7.03
2017-03-28T02:40:46.502Z,6.32
2017-03-28T02:41:45.309Z,5.78
2017-03-28T02:42:43.748Z,5.40
2017-03-28T02:43:42.904Z,7.15
2017-03-28T02:44:41.736Z,8.10
2017-03-28T02:45:40.876Z,8.58
2017-03-28T02:46:40.409Z,7.70
2017-03-28T02:47:38.854Z,9.07
2017-03-28T02:48:37.638Z,6.43
2017-03-28T02:49:36.051Z,6.60
2017-03-28T02:50:34.845Z,9.58
2017-03-28T02:51:34.056Z,5.88
2017-03-28T02:52:32.892Z,5.30
2017-03-28T02:53:31.318Z,6.05
2017-03-28T02:54:29.712Z,7.92
2017-03-28T02:55:28.112Z,5.95
2017-03-28T02:56:27.239Z,6.35
2017-03-28T02:57:26.423Z,7.78
2017-03-28T02:58:25.208Z,6.47
2017-03-28T02:59:24.397Z,13.48
2017-03-28T03:00:23.224Z,8.70
2017-03-28T03:01:21.737Z,8.25
2017-03-28T03:02:20.893Z,7.80
2017-03-28T03:03:20.012Z,5.83
2017-03-28T03:04:18.829Z,8.70
2017-03-28T03:05:17.639Z,5.77
2017-03-28T03:06:16.453Z,7.30
2017-03-28T03:07:15.593Z,5.70
2017-03-28T03:08:14.750Z,7.80
2017-03-28T03:09:13.513Z,7.08
2017-03-28T03:10:12.352Z,5.27
2017-03-28T03:11:11.172Z,7.18
2017-03-28T03:12:09.994Z,8.50
2017-03-28T03:13:08.797Z,8.00
2017-03-28T03:14:07.616Z,8.15
2017-03-28T03:15:06.792Z,6.42
2017-03-28T03:16:05.614Z,7.33
2017-03-28T03:17:04.409Z,6.05
2017-03-28T03:18:03.228Z,8.15
2017-03-28T03:19:01.653Z,5.65
2017-03-28T03:20:00.472Z,7.98
2017-03-28T03:20:59.657Z,7.98
2017-03-28T03:21:58.489Z,5.72
2017-03-28T03:22:56.925Z,7.78
2017-03-28T03:23:55.739Z,7.28
2017-03-28T03:24:54.525Z,7.63
2017-03-28T03:25:53.314Z,7.68
2017-03-28T03:26:52.395Z,7.55
2017-03-28T03:27:51.193Z,6.00
2017-03-28T03:28:49.992Z,4.57
2017-03-28T03:29:48.809Z,5.43
2017-03-28T03:30:47.633Z,7.23
2017-03-28T03:31:46.453Z,6.83
2017-03-28T03:32:45.595Z,5.57
2017-03-28T03:33:44.038Z,6.35
2017-03-28T03:34:42.853Z,5.92
2017-03-28T03:35:42.008Z,5.95
2017-03-28T03:36:40.828Z,7.48
2017-03-28T03:37:39.667Z,7.02
2017-03-28T03:38:38.775Z,5.85
2017-03-28T03:39:37.577Z,11.90
2017-03-28T03:40:36.029Z,6.23
2017-03-28T03:41:34.852Z,6.23
2017-03-28T03:42:33.805Z,7.48
2017-03-28T03:43:32.616Z,9.50
2017-03-28T03:44:31.769Z,6.88
2017-03-28T03:45:30.588Z,8.38
2017-03-28T03:46:29.791Z,10.72
2017-03-28T03:47:28.664Z,6.48
2017-03-28T03:48:27.537Z,5.73
2017-03-28T03:49:25.924Z,5.42
2017-03-28T03:50:25.020Z,6.70
2017-03-28T03:51:23.877Z,7.52
2017-03-28T03:52:22.899Z,6.55
2017-03-28T03:53:21.725Z,8.52
2017-03-28T03:54:20.532Z,9.20
2017-03-28T03:55:18.989Z,6.50
2017-03-28T03:56:18.097Z,7.13
2017-03-28T03:57:16.885Z,6.42
2017-03-28T03:58:15.713Z,5.20
2017-03-28T03:59:14.142Z,8.50
2017-03-28T04:00:12.636Z,7.20
2017-03-28T04:01:11.849Z,9.37
2017-03-28T04:02:10.908Z,8.95
2017-03-28T04:03:09.332Z,7.65
2017-03-28T04:04:08.151Z,7.53
2017-03-28T04:05:07.025Z,6.45
2017-03-28T04:06:05.967Z,6.62
2017-03-28T04:07:05.217Z,8.08
2017-03-28T04:08:04.338Z,6.60
2017-03-28T04:09:03.161Z,7.55
2017-03-28T04:10:01.602Z,6.63
2017-03-28T04:11:00.477Z,10.32
2017-03-28T04:11:59.364Z,5.72
2017-03-28T04:12:58.906Z,8.17
2017-03-28T04:13:57.581Z,7.90
2017-03-28T04:14:56.406Z,6.13
2017-03-28T04:15:55.212Z,6.72
2017-03-28T04:16:54.015Z,7.52
2017-03-28T04:17:52.827Z,8.20
2017-03-28T04:18:52.025Z,8.20
2017-03-28T04:19:51.115Z,7.72
2017-03-28T04:20:49.499Z,8.85
2017-03-28T04:21:48.302Z,8.58
2017-03-28T04:22:47.060Z,8.07
2017-03-28T04:23:46.275Z,8.17
2017-03-28T04:24:45.136Z,10.98
2017-03-28T04:25:44.340Z,13.77
2017-03-28T04:26:43.257Z,9.35
2017-03-28T04:27:43.134Z,6.70
2017-03-28T04:28:42.015Z,8.37
2017-03-28T04:29:40.538Z,10.82
2017-03-28T04:30:39.525Z,8.52
2017-03-28T04:31:38.743Z,8.97
2017-03-28T04:32:39.186Z,7.63
2017-03-28T04:33:39.076Z,9.93
2017-03-28T04:34:39.558Z,11.07
2017-03-28T04:35:40.225Z,7.93
2017-03-28T04:36:40.472Z,9.95
2017-03-28T04:37:40.230Z,7.28
2017-03-28T04:38:40.558Z,7.87
2017-03-28T04:39:40.285Z,12.67
2017-03-28T04:40:39.740Z,8.72
2017-03-28T04:41:39.283Z,8.45
2017-03-28T04:42:39.158Z,9.48
2017-03-28T04:43:37.989Z,7.72
2017-03-28T04:44:36.871Z,10.95
2017-03-28T04:45:35.767Z,8.43
2017-03-28T04:46:34.716Z,8.48
2017-03-28T04:47:33.197Z,8.23
2017-03-28T04:48:31.921Z,7.37
2017-03-28T04:49:30.807Z,12.90
2017-03-28T04:50:29.712Z,7.60
2017-03-28T04:51:28.598Z,6.73
2017-03-28T04:52:27.144Z,10.10
2017-03-28T04:53:25.975Z,7.53
2017-03-28T04:54:24.846Z,7.63
2017-03-28T04:55:23.724Z,9.75
2017-03-28T04:56:22.569Z,11.83
2017-03-28T04:57:21.449Z,8.67
2017-03-28T04:58:20.318Z,9.18
2017-03-28T04:59:19.241Z,6.80
2017-03-28T05:00:18.123Z,7.23
2017-03-28T05:01:17.045Z,7.85
2017-03-28T05:02:15.991Z,8.25
2017-03-28T05:03:14.481Z,8.48
2017-03-28T05:04:13.366Z,8.07
2017-03-28T05:05:12.492Z,13.98
2017-03-28T05:06:11.718Z,7.68
2017-03-28T05:07:10.648Z,8.52
2017-03-28T05:08:09.143Z,9.73
2017-03-28T05:09:08.016Z,7.07
2017-03-28T05:10:06.870Z,6.55
2017-03-28T05:11:05.770Z,7.72
2017-03-28T05:12:04.936Z,6.97
2017-03-28T05:13:03.846Z,9.28
2017-03-28T05:14:02.388Z,11.42
2017-03-28T05:15:01.265Z,9.33
2017-03-28T05:16:00.116Z,11.83
2017-03-28T05:16:58.946Z,10.22
2017-03-28T05:17:58.210Z,6.10
2017-03-28T05:18:57.049Z,9.77
2017-03-28T05:19:55.543Z,7.93
2017-03-28T05:20:54.436Z,7.12
2017-03-28T05:21:53.334Z,5.75
2017-03-28T05:22:52.178Z,6.68
2017-03-28T05:23:51.308Z,7.28
2017-03-28T05:24:49.809Z,14.30
2017-03-28T05:25:48.732Z,7.88
2017-03-28T05:26:47.977Z,8.02
2017-03-28T05:27:46.476Z,7.42
2017-03-28T05:28:45.339Z,5.95
2017-03-28T05:29:44.522Z,12.40
2017-03-28T05:30:43.071Z,13.05
2017-03-28T05:31:41.923Z,10.52
2017-03-28T05:32:40.805Z,7.77
2017-03-28T05:33:39.742Z,7.28
2017-03-28T05:34:38.625Z,8.33
2017-03-28T05:35:38.221Z,7.70
2017-03-28T05:36:37.152Z,7.82
2017-03-28T05:37:36.043Z,9.27
2017-03-28T05:38:34.539Z,9.75
2017-03-28T05:39:33.390Z,9.07
2017-03-28T05:40:32.261Z,7.02
2017-03-28T05:41:31.029Z,12.78
2017-03-28T05:42:29.882Z,7.32
2017-03-28T05:43:28.337Z,9.62
2017-03-28T05:44:27.204Z,8.68
2017-03-28T05:45:26.085Z,8.20
2017-03-28T05:46:24.532Z,9.30
2017-03-28T05:47:23.771Z,9.42
2017-03-28T05:48:22.635Z,6.40
2017-03-28T05:49:21.529Z,8.18
2017-03-28T05:50:20.423Z,10.87
2017-03-28T05:51:19.650Z,5.17
2017-03-28T05:52:18.594Z,9.30
2017-03-28T05:53:17.462Z,7.70
2017-03-28T05:54:15.983Z,7.82
2017-03-28T05:55:14.535Z,9.70
2017-03-28T05:56:13.388Z,8.97
2017-03-28T05:57:12.263Z,7.00
2017-03-28T05:58:11.167Z,7.60
2017-03-28T05:59:10.417Z,5.33
2017-03-28T06:00:09.336Z,6.42
2017-03-28T06:01:08.224Z,5.30
2017-03-28T06:02:07.125Z,10.03
2017-03-28T06:03:06.296Z,7.55
2017-03-28T06:04:05.201Z,6.73
2017-03-28T06:05:04.446Z,6.12
2017-03-28T06:06:03.294Z,7.93
2017-03-28T06:07:02.131Z,6.03
2017-03-28T06:08:00.992Z,6.48
2017-03-28T06:08:59.914Z,5.88
2017-03-28T06:09:58.722Z,8.00
2017-03-28T06:10:57.380Z,6.13
2017-03-28T06:11:56.796Z,5.57
2017-03-28T06:12:55.776Z,6.98
2017-03-28T06:13:54.533Z,5.45
2017-03-28T06:14:52.899Z,9.47
2017-03-28T06:15:52.439Z,5.88
2017-03-28T06:16:51.892Z,7.70
2017-03-28T06:17:50.694Z,9.95
2017-03-28T06:18:49.449Z,31.95
2017-03-28T06:19:48.237Z,7.40
2017-03-28T06:20:46.990Z,5.60
2017-03-28T06:21:45.771Z,6.13
2017-03-28T06:22:44.863Z,6.95
2017-03-28T06:23:43.832Z,6.17
2017-03-28T06:24:42.253Z,7.77
2017-03-28T06:25:40.617Z,6.62
2017-03-28T06:26:38.990Z,5.67
2017-03-28T06:27:37.783Z,5.63
2017-03-28T06:28:36.926Z,7.85
2017-03-28T06:29:35.692Z,7.60
2017-03-28T06:30:34.231Z,9.12
2017-03-28T06:31:33.157Z,8.82
2017-03-28T06:32:31.933Z,6.70
2017-03-28T06:33:40.120Z,6.62
2017-03-28T06:34:41.843Z,8.05
2017-03-28T06:35:42.082Z,7.40
2017-03-28T06:36:42.128Z,6.50
2017-03-28T06:37:40.976Z,8.73
2017-03-28T06:38:39.874Z,9.85
2017-03-28T06:39:38.778Z,17.83
2017-03-28T06:40:37.877Z,9.87
2017-03-28T06:41:36.699Z,6.48
2017-03-28T06:42:35.524Z,7.67
2017-03-28T06:43:34.369Z,12.48
2017-03-28T06:44:33.218Z,8.45
2017-03-28T06:45:32.037Z,5.72
2017-03-28T06:46:31.142Z,8.17
2017-03-28T06:47:29.949Z,11.73
2017-03-28T06:48:28.391Z,11.27
2017-03-28T06:49:27.217Z,9.67
2017-03-28T06:50:26.085Z,8.50
2017-03-28T06:51:24.522Z,7.92
2017-03-28T06:52:23.673Z,9.18
2017-03-28T06:53:22.547Z,6.57
2017-03-28T06:54:21.369Z,7.40
2017-03-28T06:55:20.184Z,8.20
2017-03-28T06:56:19.031Z,8.05
2017-03-28T06:57:17.844Z,11.25
2017-03-28T06:58:17.053Z,7.78
2017-03-28T06:59:15.870Z,8.57
2017-03-28T07:00:14.688Z,7.65
2017-03-28T07:01:13.508Z,8.78
2017-03-28T07:02:12.335Z,8.18
2017-03-28T07:03:10.790Z,7.42
2017-03-28T07:04:09.925Z,8.72
2017-03-28T07:05:08.724Z,9.17
2017-03-28T07:06:07.621Z,10.45
2017-03-28T07:07:06.470Z,7.50
2017-03-28T07:08:05.251Z,8.38
2017-03-28T07:09:04.161Z,11.03
2017-03-28T07:10:02.976Z,6.70
2017-03-28T07:11:01.409Z,9.68
2017-03-28T07:11:59.821Z,10.85
2017-03-28T07:12:58.200Z,7.75
2017-03-28T07:13:56.977Z,9.15
2017-03-28T07:14:55.777Z,10.37
2017-03-28T07:15:54.958Z,13.70
2017-03-28T07:16:53.748Z,7.85
2017-03-28T07:17:52.574Z,9.05
2017-03-28T07:18:51.377Z,9.95
2017-03-28T07:19:50.196Z,7.25
2017-03-28T07:20:49.056Z,9.57
2017-03-28T07:21:48.116Z,9.25
2017-03-28T07:22:46.933Z,9.27
2017-03-28T07:23:45.723Z,7.48
2017-03-28T07:24:44.516Z,8.22
2017-03-28T07:25:42.902Z,8.40
2017-03-28T07:26:41.660Z,8.28
2017-03-28T07:27:40.804Z,10.65
2017-03-28T07:28:39.616Z,20.37
2017-03-28T07:29:38.703Z,9.18
2017-03-28T07:30:37.171Z,12.23
2017-03-28T07:31:36.004Z,9.83
2017-03-28T07:32:34.831Z,12.27
2017-03-28T07:33:34.287Z,10.30
2017-03-28T07:34:33.069Z,12.58
2017-03-28T07:35:31.874Z,11.32
2017-03-28T07:36:31.062Z,14.57
2017-03-28T07:37:29.461Z,9.08
2017-03-28T07:38:28.279Z,11.53
2017-03-28T07:39:27.460Z,9.12
2017-03-28T07:40:25.880Z,9.88
2017-03-28T07:41:24.672Z,9.33
2017-03-28T07:42:23.460Z,11.43
2017-03-28T07:43:22.304Z,8.32
2017-03-28T07:44:21.448Z,13.22
2017-03-28T07:45:20.559Z,9.77
2017-03-28T07:46:19.304Z,10.03
2017-03-28T07:47:18.274Z,11.47
2017-03-28T07:48:17.037Z,9.47
2017-03-28T07:49:15.824Z,9.72
2017-03-28T07:50:14.228Z,8.57
2017-03-28T07:51:13.276Z,12.10
2017-03-28T07:52:12.548Z,10.07
2017-03-28T07:53:10.952Z,8.52
2017-03-28T07:54:09.728Z,9.60
2017-03-28T07:55:08.192Z,10.20
2017-03-28T07:56:07.017Z,9.27
2017-03-28T07:57:06.184Z,12.42
2017-03-28T07:58:04.959Z,13.67
2017-03-28T07:59:03.741Z,8.13
2017-03-28T08:00:02.508Z,12.40
2017-03-28T08:01:01.280Z,9.13
2017-03-28T08:02:00.357Z,8.48
2017-03-28T08:02:59.057Z,9.88
2017-03-28T08:03:57.833Z,9.87
2017-03-28T08:04:56.621Z,9.30
2017-03-28T08:05:55.406Z,8.65
2017-03-28T08:06:54.189Z,12.05
2017-03-28T08:07:52.955Z,11.00
2017-03-28T08:08:52.024Z,14.78
2017-03-28T08:09:50.828Z,12.15
2017-03-28T08:10:49.247Z,10.25
2017-03-28T08:11:48.056Z,11.12
2017-03-28T08:12:46.464Z,12.75
2017-03-28T08:13:45.259Z,10.07
2017-03-28T08:14:44.395Z,11.10
2017-03-28T08:15:43.195Z,11.10
2017-03-28T08:16:42.004Z,10.60
2017-03-28T08:17:42.626Z,11.18
2017-03-28T08:18:42.873Z,15.38
2017-03-28T08:19:43.749Z,14.50
2017-03-28T08:20:42.891Z,9.38
2017-03-28T08:21:41.675Z,12.68
2017-03-28T08:22:40.523Z,11.60
2017-03-28T08:23:39.348Z,12.48
2017-03-28T08:24:38.124Z,8.80
2017-03-28T08:25:36.960Z,9.57
2017-03-28T08:26:36.180Z,13.10
2017-03-28T08:27:35.000Z,9.15
2017-03-28T08:28:33.922Z,11.40
2017-03-28T08:29:32.718Z,15.20
2017-03-28T08:30:31.601Z,12.35
2017-03-28T08:31:30.437Z,11.08
2017-03-28T08:32:29.572Z,9.68
2017-03-28T08:33:28.709Z,11.28
2017-03-28T08:34:27.533Z,16.35
2017-03-28T08:35:26.417Z,13.45
2017-03-28T08:36:25.272Z,9.07
2017-03-28T08:37:24.639Z,10.78
2017-03-28T08:38:23.776Z,17.63
2017-03-28T08:39:22.608Z,11.48
2017-03-28T08:40:21.421Z,14.33
2017-03-28T08:41:20.216Z,11.90
2017-03-28T08:42:19.521Z,9.72
2017-03-28T08:43:18.339Z,11.22
2017-03-28T08:44:17.504Z,13.95
2017-03-28T08:45:16.689Z,11.37
2017-03-28T08:46:15.116Z,12.17
2017-03-28T08:47:13.964Z,14.83
2017-03-28T08:48:12.788Z,9.30
2017-03-28T08:49:11.654Z,10.68
2017-03-28T08:50:10.855Z,11.37
2017-03-28T08:51:09.673Z,12.22
2017-03-28T08:52:08.144Z,11.02
2017-03-28T08:53:06.972Z,11.43
2017-03-28T08:54:05.740Z,11.55
2017-03-28T08:55:04.549Z,9.77
2017-03-28T08:56:03.753Z,10.18
2017-03-28T08:57:02.147Z,11.82
2017-03-28T08:58:00.964Z,13.35
2017-03-28T08:58:59.824Z,11.03
2017-03-28T08:59:58.633Z,12.28
2017-03-28T09:00:57.021Z,13.55
2017-03-28T09:01:56.136Z,11.12
2017-03-28T09:02:54.920Z,12.23
2017-03-28T09:03:54.515Z,10.52
2017-03-28T09:04:53.620Z,11.45
2017-03-28T09:05:54.787Z,10.65
2017-03-28T09:06:53.635Z,10.28
2017-03-28T09:07:52.760Z,11.63
2017-03-28T09:08:51.533Z,14.70
2017-03-28T09:09:50.338Z,12.62
2017-03-28T09:10:49.157Z,13.67
2017-03-28T09:11:47.606Z,12.20
2017-03-28T09:12:46.424Z,10.87
2017-03-28T09:13:45.812Z,13.13
2017-03-28T09:14:44.623Z,12.22
2017-03-28T09:15:43.474Z,11.60
2017-03-28T09:16:42.371Z,12.15
2017-03-28T09:17:41.167Z,11.33
2017-03-28T09:18:39.932Z,10.82
2017-03-28T09:19:38.595Z,13.70
2017-03-28T09:20:37.515Z,11.78
2017-03-28T09:21:36.301Z,11.42
2017-03-28T09:22:35.122Z,11.78
2017-03-28T09:23:33.916Z,13.68
2017-03-28T09:24:32.743Z,13.73
2017-03-28T09:25:31.858Z,12.48
2017-03-28T09:26:30.990Z,11.62
2017-03-28T09:27:29.955Z,11.05
2017-03-28T09:28:28.756Z,14.28
2017-03-28T09:29:27.536Z,11.45
2017-03-28T09:30:26.362Z,11.55
2017-03-28T09:31:25.493Z,14.38
2017-03-28T09:32:24.645Z,10.63
2017-03-28T09:33:23.516Z,11.88
2017-03-28T09:34:22.321Z,10.82
2017-03-28T09:35:30.035Z,10.80
2017-03-28T09:36:29.189Z,13.40
2017-03-28T09:37:28.030Z,12.13
2017-03-28T09:38:26.837Z,11.27
2017-03-28T09:39:25.904Z,12.22
2017-03-28T09:40:24.731Z,14.33
2017-03-28T09:41:23.595Z,13.18
2017-03-28T09:42:22.300Z,13.17
2017-03-28T09:43:21.460Z,11.85
2017-03-28T09:44:20.267Z,14.13
2017-03-28T09:45:19.052Z,11.15
2017-03-28T09:46:18.231Z,12.58
2017-03-28T09:47:17.037Z,13.32
2017-03-28T09:48:16.170Z,12.88
2017-03-28T09:49:14.995Z,10.83
2017-03-28T09:50:14.100Z,11.53
2017-03-28T09:51:12.893Z,13.30
2017-03-28T09:52:11.703Z,10.75
2017-03-28T09:53:10.459Z,11.70
2017-03-28T09:54:09.655Z,15.18
2017-03-28T09:55:08.451Z,14.28
2017-03-28T09:56:07.211Z,13.93
2017-03-28T09:57:06.091Z,11.18
2017-03-28T09:58:04.892Z,13.40
2017-03-28T09:59:03.695Z,14.08
2017-03-28T10:00:03.133Z,14.35
2017-03-28T10:01:01.935Z,12.08
2017-03-28T10:02:00.772Z,10.60
2017-03-28T10:03:01.007Z,16.13
2017-03-28T10:03:59.615Z,13.33
2017-03-28T10:04:58.551Z,13.52
2017-03-28T10:05:57.759Z,12.57
2017-03-28T10:06:56.124Z,13.60
2017-03-28T10:07:54.941Z,16.42
2017-03-28T10:08:53.745Z,11.90
2017-03-28T10:09:52.236Z,13.88
2017-03-28T10:10:50.709Z,11.62
2017-03-28T10:11:50.208Z,13.12
2017-03-28T10:12:49.001Z,13.60
2017-03-28T10:13:47.391Z,12.95
2017-03-28T10:14:45.900Z,10.68
2017-03-28T10:15:44.273Z,11.92
2017-03-28T10:16:43.149Z,13.17
2017-03-28T10:17:42.263Z,14.72
2017-03-28T10:18:41.098Z,10.25
2017-03-28T10:19:40.140Z,17.82
2017-03-28T10:20:38.569Z,12.60
2017-03-28T10:21:37.292Z,13.92
2017-03-28T10:22:36.182Z,12.98
2017-03-28T10:23:35.314Z,12.17
2017-03-28T10:24:33.701Z,12.63
2017-03-28T10:25:32.488Z,18.45
2017-03-28T10:26:31.297Z,11.73
2017-03-28T10:27:30.144Z,18.83
2017-03-28T10:28:28.933Z,12.82
2017-03-28T10:29:28.012Z,12.22
2017-03-28T10:30:26.867Z,12.38
2017-03-28T10:31:25.699Z,13.32
2017-03-28T10:32:24.592Z,15.98
2017-03-28T10:33:23.410Z,12.93
2017-03-28T10:34:22.216Z,13.65
2017-03-28T10:35:21.392Z,14.25
2017-03-28T10:36:19.809Z,16.33
2017-03-28T10:37:18.671Z,13.53
2017-03-28T10:38:17.076Z,12.55
2017-03-28T10:39:15.900Z,12.25
2017-03-28T10:40:14.688Z,10.77
2017-03-28T10:41:13.453Z,13.78
2017-03-28T10:42:12.232Z,15.18
2017-03-28T10:43:10.657Z,10.85
2017-03-28T10:44:09.465Z,11.67
2017-03-28T10:45:07.905Z,12.17
2017-03-28T10:46:08.509Z,16.57
2017-03-28T10:47:07.236Z,13.92
2017-03-28T10:48:06.024Z,14.18
2017-03-28T10:49:07.111Z,11.33
2017-03-28T10:50:06.470Z,11.90
2017-03-28T10:51:06.054Z,12.17
2017-03-28T10:52:07.868Z,14.52
2017-03-28T10:53:09.589Z,13.97
2017-03-28T10:54:11.293Z,12.85
2017-03-28T10:55:11.997Z,12.33
2017-03-28T10:56:12.154Z,14.63
2017-03-28T10:57:12.206Z,13.63
2017-03-28T10:58:12.304Z,16.48
2017-03-28T10:59:12.119Z,13.60
2017-03-28T11:00:12.055Z,13.77
2017-03-28T11:01:11.736Z,14.60
2017-03-28T11:02:10.807Z,13.03
2017-03-28T11:03:10.302Z,15.15
2017-03-28T11:04:09.179Z,12.45
2017-03-28T11:05:08.006Z,12.78
2017-03-28T11:06:06.849Z,13.88
2017-03-28T11:07:05.691Z,12.30
2017-03-28T11:08:04.592Z,13.65
2017-03-28T11:09:03.492Z,13.33
2017-03-28T11:10:02.328Z,15.85
2017-03-28T11:11:01.184Z,12.20
2017-03-28T11:12:00.041Z,13.57
2017-03-28T11:12:58.849Z,13.88
2017-03-28T11:13:57.662Z,15.35
2017-03-28T11:14:56.784Z,10.65
2017-03-28T11:15:55.629Z,13.28
2017-03-28T11:16:54.037Z,12.77
2017-03-28T11:17:52.862Z,14.72
2017-03-28T11:18:51.680Z,11.98
2017-03-28T11:19:50.463Z,13.73
2017-03-28T11:20:49.558Z,14.52
2017-03-28T11:21:47.980Z,16.92
2017-03-28T11:22:46.829Z,16.93
2017-03-28T11:23:45.624Z,14.22
2017-03-28T11:24:44.441Z,17.00
2017-03-28T11:25:43.270Z,15.33
2017-03-28T11:26:42.370Z,12.25
2017-03-28T11:27:41.210Z,10.67
2017-03-28T11:28:40.024Z,11.20
2017-03-28T11:29:38.825Z,13.58
2017-03-28T11:30:37.676Z,16.68
2017-03-28T11:31:36.485Z,13.50
2017-03-28T11:32:35.608Z,17.98
2017-03-28T11:33:34.369Z,10.23
2017-03-28T11:34:33.222Z,10.35
2017-03-28T11:35:31.603Z,12.22
2017-03-28T11:36:31.241Z,12.00
2017-03-28T11:37:31.880Z,11.80
2017-03-28T11:38:34.730Z,13.55
2017-03-28T11:39:39.017Z,11.93
2017-03-28T11:41:56.751Z,13.97
2017-03-28T11:42:57.217Z,18.43
2017-03-28T11:43:57.276Z,11.70
2017-03-28T11:44:57.169Z,11.87
2017-03-28T11:47:19.032Z,12.63
2017-03-28T11:48:24.511Z,15.00
2017-03-28T11:49:24.649Z,13.47
2017-03-28T11:50:25.726Z,11.85
2017-03-28T11:51:27.882Z,11.78
2017-03-28T11:52:29.647Z,11.33
2017-03-28T11:53:29.868Z,12.52
2017-03-28T11:54:31.561Z,10.23
2017-03-28T11:55:31.141Z,18.07
2017-03-28T11:56:30.736Z,9.52
2017-03-28T11:57:30.636Z,11.10
2017-03-28T11:58:30.989Z,11.43
2017-03-28T11:59:37.138Z,12.18
2017-03-28T12:00:38.287Z,16.53
2017-03-28T12:01:37.973Z,15.55
2017-03-28T12:02:38.321Z,14.88
2017-03-28T12:03:43.068Z,13.65
2017-03-28T12:04:48.259Z,11.67
2017-03-28T12:05:53.088Z,13.87
2017-03-28T12:06:56.267Z,22.65
2017-03-28T12:08:03.164Z,11.40
2017-03-28T12:09:02.919Z,10.97
2017-03-28T12:10:02.183Z,11.77
2017-03-28T12:11:04.402Z,12.15
2017-03-28T12:12:07.257Z,16.87
2017-03-28T12:13:13.793Z,10.88
2017-03-28T12:14:22.999Z,13.08
2017-03-28T12:15:23.230Z,12.50
2017-03-28T12:16:23.175Z,16.37
2017-03-28T12:17:22.961Z,14.15
2017-03-28T12:18:24.208Z,10.87
2017-03-28T12:19:26.399Z,10.60
2017-03-28T12:20:26.482Z,11.92
2017-03-28T12:21:29.292Z,13.80
2017-03-28T12:22:29.960Z,12.90
2017-03-28T12:23:34.013Z,15.93
2017-03-28T12:24:33.954Z,20.33
2017-03-28T12:25:37.482Z,16.35
2017-03-28T12:26:41.056Z,15.45
2017-03-28T12:27:43.582Z,11.62
2017-03-28T12:28:47.227Z,10.25
2017-03-28T12:29:58.502Z,8.98
2017-03-28T12:30:59.320Z,13.67
2017-03-28T12:32:00.310Z,15.20
2017-03-28T12:33:00.633Z,12.80
2017-03-28T12:33:59.463Z,14.28
2017-03-28T12:34:58.254Z,9.62
2017-03-28T12:35:56.693Z,10.13
2017-03-28T12:36:55.900Z,10.63
2017-03-28T12:37:54.812Z,12.68
2017-03-28T12:38:53.603Z,13.57
2017-03-28T12:39:52.878Z,10.02
2017-03-28T12:40:52.531Z,12.12
2017-03-28T12:41:52.614Z,9.90
2017-03-28T12:42:52.027Z,10.78
2017-03-28T12:43:51.244Z,12.48
2017-03-28T12:44:50.246Z,10.02
2017-03-28T12:45:50.265Z,9.90
2017-03-28T12:46:49.394Z,15.38
2017-03-28T12:47:48.791Z,11.73
2017-03-28T12:48:48.814Z,12.37
2017-03-28T12:49:48.092Z,13.37
2017-03-28T12:50:47.654Z,12.42
2017-03-28T12:51:47.051Z,11.58
2017-03-28T12:52:46.608Z,8.93
2017-03-28T12:53:46.067Z,13.78
2017-03-28T12:54:45.639Z,8.87
2017-03-28T12:55:45.694Z,9.13
2017-03-28T12:56:45.262Z,11.70
2017-03-28T12:57:44.673Z,10.87
2017-03-28T12:58:43.967Z,13.57
2017-03-28T12:59:43.439Z,11.93